createdAt,value
2023-01-23T00:02:10.103Z,102760.00
2023-01-23T00:04:39.983Z,102774.00
2023-01-23T00:07:09.889Z,102777.00
2023-01-23T00:09:39.803Z,102768.00
2023-01-23T00:12:10.063Z,102768.00
2023-01-23T00:14:39.908Z,102774.00
2023-01-23T00:17:12.376Z,102763.00
2023-01-23T00:19:42.246Z,102764.00
2023-01-23T00:22:15.433Z,102773.00
2023-01-23T00:24:45.271Z,102771.00
2023-01-23T00:27:15.201Z,102770.00
2023-01-23T00:29:45.366Z,102772.00
2023-01-23T00:32:17.825Z,102771.00
2023-01-23T00:34:48.761Z,102771.00
2023-01-23T00:37:19.472Z,102777.00
2023-01-23T00:39:50.973Z,102773.00
2023-01-23T00:42:21.227Z,102772.00
2023-01-23T00:44:51.335Z,102770.00
2023-01-23T00:47:23.811Z,102776.00
2023-01-23T00:49:54.015Z,102771.00
2023-01-23T00:52:23.956Z,102771.00
2023-01-23T00:54:53.832Z,102774.00
2023-01-23T00:57:23.694Z,102780.00
2023-01-23T00:59:53.554Z,102783.00
2023-01-23T01:02:26.084Z,102787.00
2023-01-23T01:04:55.977Z,102793.00
2023-01-23T01:07:25.859Z,102797.00
2023-01-23T01:09:55.743Z,102804.00
2023-01-23T01:12:25.601Z,102802.00
2023-01-23T01:14:55.497Z,102814.00
2023-01-23T01:17:28.080Z,102813.00
2023-01-23T01:19:58.012Z,102808.00
2023-01-23T01:22:27.993Z,102810.00
2023-01-23T01:24:57.864Z,102813.00
2023-01-23T01:27:27.895Z,102816.00
2023-01-23T01:29:58.129Z,102824.00
2023-01-23T01:32:30.580Z,102812.00
2023-01-23T01:35:00.467Z,102815.00
2023-01-23T01:37:30.334Z,102816.00
2023-01-23T01:40:00.285Z,102806.00
2023-01-23T01:42:30.973Z,102812.00
2023-01-23T01:45:04.476Z,102818.00
2023-01-23T01:47:37.513Z,102819.00
2023-01-23T01:50:12.431Z,102829.00
2023-01-23T01:52:43.539Z,102837.00
2023-01-23T01:55:14.818Z,102825.00
2023-01-23T01:57:50.070Z,102820.00
2023-01-23T02:00:23.138Z,102829.00
2023-01-23T02:02:58.986Z,102820.00
2023-01-23T02:05:32.172Z,102820.00
2023-01-23T02:08:11.041Z,102822.00
2023-01-23T02:10:40.931Z,102820.00
2023-01-23T02:13:32.423Z,102820.00
2023-01-23T02:16:05.533Z,102826.00
2023-01-23T02:18:44.600Z,102830.00
2023-01-23T02:21:16.391Z,102827.00
2023-01-23T02:23:58.214Z,102829.00
2023-01-23T02:26:33.937Z,102830.00
2023-01-23T02:29:03.855Z,102833.00
2023-01-23T02:31:33.963Z,102828.00
2023-01-23T02:34:04.053Z,102824.00
2023-01-23T02:36:37.065Z,102828.00
2023-01-23T02:39:14.175Z,102830.00
2023-01-23T02:41:49.481Z,102842.00
2023-01-23T02:44:22.000Z,102842.00
2023-01-23T02:46:52.269Z,102835.00
2023-01-23T02:49:22.776Z,102846.00
2023-01-23T02:51:53.673Z,102847.00
2023-01-23T02:54:24.445Z,102847.00
2023-01-23T02:56:57.276Z,102855.00
2023-01-23T02:59:39.749Z,102856.00
2023-01-23T03:02:09.647Z,102866.00
2023-01-23T03:04:39.534Z,102860.00
2023-01-23T03:07:09.423Z,102863.00
2023-01-23T03:09:39.646Z,102870.00
2023-01-23T03:12:12.281Z,102863.00
2023-01-23T03:14:42.366Z,102861.00
2023-01-23T03:17:14.962Z,102869.00
2023-01-23T03:19:44.880Z,102865.00
2023-01-23T03:22:14.854Z,102865.00
2023-01-23T03:24:44.837Z,102860.00
2023-01-23T03:27:17.325Z,102878.00
2023-01-23T03:29:59.984Z,102866.00
2023-01-23T03:32:30.882Z,102866.00
2023-01-23T03:35:00.729Z,102881.00
2023-01-23T03:37:30.710Z,102877.00
2023-01-23T03:40:13.210Z,102877.00
2023-01-23T03:42:45.686Z,102896.00
2023-01-23T03:45:15.567Z,102881.00
2023-01-23T03:47:45.430Z,102890.00
2023-01-23T03:50:15.297Z,102900.00
2023-01-23T03:52:45.214Z,102906.00
2023-01-23T03:55:15.172Z,102906.00
2023-01-23T03:57:47.604Z,102911.00
2023-01-23T04:00:19.093Z,102911.00
2023-01-23T04:02:49.165Z,102906.00
2023-01-23T04:05:19.297Z,102913.00
2023-01-23T04:07:49.228Z,102914.00
2023-01-23T04:10:19.715Z,102911.00
2023-01-23T04:12:52.423Z,102918.00
2023-01-23T04:15:23.027Z,102917.00
2023-01-23T04:17:52.923Z,102920.00
2023-01-23T04:20:23.194Z,102922.00
2023-01-23T04:22:53.091Z,102916.00
2023-01-23T04:25:22.984Z,102927.00
2023-01-23T04:27:55.447Z,102923.00
2023-01-23T04:30:25.418Z,102922.00
2023-01-23T04:32:55.338Z,102921.00
2023-01-23T04:35:25.246Z,102924.00
2023-01-23T04:37:55.589Z,102929.00
2023-01-23T04:40:25.583Z,102923.00
2023-01-23T04:42:58.266Z,102929.00
2023-01-23T04:45:28.133Z,102928.00
2023-01-23T04:47:58.007Z,102919.00
2023-01-23T04:50:27.865Z,102932.00
2023-01-23T04:52:58.371Z,102922.00
2023-01-23T04:55:28.381Z,102934.00
2023-01-23T04:58:00.900Z,102930.00
2023-01-23T05:00:31.495Z,102939.00
2023-01-23T05:03:02.733Z,102938.00
2023-01-23T05:05:32.710Z,102934.00
2023-01-23T05:08:02.681Z,102936.00
2023-01-23T05:10:32.657Z,102943.00
2023-01-23T05:13:05.767Z,102938.00
2023-01-23T05:15:35.779Z,102938.00
2023-01-23T05:18:05.739Z,102925.00
2023-01-23T05:20:35.627Z,102932.00
2023-01-23T05:23:05.527Z,102928.00
2023-01-23T05:25:35.477Z,102929.00
2023-01-23T05:28:09.745Z,102932.00
2023-01-23T05:30:40.807Z,102933.00
2023-01-23T05:33:10.789Z,102933.00
2023-01-23T05:35:41.764Z,102929.00
2023-01-23T05:38:12.433Z,102941.00
2023-01-23T05:40:42.766Z,102933.00
2023-01-23T05:43:17.753Z,102940.00
2023-01-23T05:45:47.686Z,102938.00
2023-01-23T05:48:17.628Z,102936.00
2023-01-23T05:50:47.516Z,102939.00
2023-01-23T05:53:17.419Z,102950.00
2023-01-23T05:55:47.313Z,102955.00
2023-01-23T05:58:19.789Z,102964.00
2023-01-23T06:00:49.705Z,102966.00
2023-01-23T06:03:20.033Z,102965.00
2023-01-23T06:05:49.929Z,102966.00
2023-01-23T06:08:19.875Z,102969.00
2023-01-23T06:10:49.781Z,102978.00
2023-01-23T06:13:22.280Z,102979.00
2023-01-23T06:15:52.239Z,102978.00
2023-01-23T06:18:22.621Z,102983.00
2023-01-23T06:20:52.596Z,102981.00
2023-01-23T06:23:22.464Z,102994.00
2023-01-23T06:25:52.372Z,102987.00
2023-01-23T06:28:24.815Z,102981.00
2023-01-23T06:30:54.842Z,102990.00
2023-01-23T06:33:24.832Z,102999.00
2023-01-23T06:36:01.196Z,102994.00
2023-01-23T06:38:31.615Z,102998.00
2023-01-23T06:41:01.989Z,103000.00
2023-01-23T06:43:34.451Z,102991.00
2023-01-23T06:46:04.340Z,103005.00
2023-01-23T06:48:34.203Z,102994.00
2023-01-23T06:51:04.801Z,103003.00
2023-01-23T06:53:35.248Z,103015.00
2023-01-23T06:56:06.305Z,103010.00
2023-01-23T06:58:39.876Z,103007.00
2023-01-23T07:01:15.923Z,103006.00
2023-01-23T07:03:47.038Z,103021.00
2023-01-23T07:06:17.828Z,103017.00
2023-01-23T07:08:47.944Z,103019.00
2023-01-23T07:11:17.795Z,103020.00
2023-01-23T07:13:50.286Z,103024.00
2023-01-23T07:16:20.212Z,103024.00
2023-01-23T07:18:50.079Z,103026.00
2023-01-23T07:21:19.998Z,103023.00
2023-01-23T07:23:51.068Z,103024.00
2023-01-23T07:26:21.033Z,103019.00
2023-01-23T07:28:53.749Z,103035.00
2023-01-23T07:31:23.758Z,103030.00
2023-01-23T07:33:53.679Z,103027.00
2023-01-23T07:36:23.548Z,103029.00
2023-01-23T07:38:53.431Z,103023.00
2023-01-23T07:41:23.334Z,103023.00
2023-01-23T07:43:55.780Z,103028.00
2023-01-23T07:46:26.979Z,103026.00
2023-01-23T07:48:56.893Z,103035.00
2023-01-23T07:51:26.809Z,103039.00
2023-01-23T07:53:56.698Z,103038.00
2023-01-23T07:56:26.563Z,103030.00
2023-01-23T07:58:59.034Z,103023.00
2023-01-23T08:01:29.173Z,103028.00
2023-01-23T08:03:59.164Z,103032.00
2023-01-23T08:06:29.018Z,103038.00
2023-01-23T08:08:58.924Z,103041.00
2023-01-23T08:11:29.055Z,103042.00
2023-01-23T08:14:01.555Z,103044.00
2023-01-23T08:16:31.525Z,103041.00
2023-01-23T08:19:01.438Z,103044.00
2023-01-23T08:21:31.311Z,103050.00
2023-01-23T08:24:03.180Z,103055.00
2023-01-23T08:26:33.501Z,103049.00
2023-01-23T08:29:06.074Z,103056.00
2023-01-23T08:31:36.168Z,103064.00
2023-01-23T08:34:06.187Z,103061.00
2023-01-23T08:36:36.104Z,103059.00
2023-01-23T08:39:06.383Z,103067.00
2023-01-23T08:41:36.265Z,103078.00
2023-01-23T08:44:08.868Z,103079.00
2023-01-23T08:46:38.736Z,103083.00
2023-01-23T08:49:10.947Z,103089.00
2023-01-23T08:51:41.396Z,103097.00
2023-01-23T08:54:11.311Z,103098.00
2023-01-23T08:56:41.307Z,103102.00
2023-01-23T08:59:13.796Z,103092.00
2023-01-23T09:01:43.675Z,103109.00
2023-01-23T09:04:13.556Z,103103.00
2023-01-23T09:06:43.443Z,103110.00
2023-01-23T09:09:13.368Z,103113.00
2023-01-23T09:11:43.241Z,103123.00
2023-01-23T09:14:15.824Z,103124.00
2023-01-23T09:16:45.745Z,103122.00
2023-01-23T09:19:15.916Z,103124.00
2023-01-23T09:21:45.917Z,103120.00
2023-01-23T09:24:15.827Z,103134.00
2023-01-23T09:26:46.053Z,103139.00
2023-01-23T09:29:18.685Z,103140.00
2023-01-23T09:31:48.535Z,103142.00
2023-01-23T09:34:18.426Z,103152.00
2023-01-23T09:36:48.260Z,103145.00
2023-01-23T09:39:18.129Z,103152.00
2023-01-23T09:41:49.233Z,103148.00
2023-01-23T09:44:25.785Z,103142.00
2023-01-23T09:47:02.671Z,103151.00
2023-01-23T09:49:41.331Z,103143.00
2023-01-23T09:52:16.447Z,103142.00
2023-01-23T09:54:49.034Z,103147.00
2023-01-23T09:57:23.356Z,103148.00
2023-01-23T10:00:03.776Z,103147.00
2023-01-23T10:02:33.939Z,103151.00
2023-01-23T10:05:04.503Z,103148.00
2023-01-23T10:07:49.960Z,103145.00
2023-01-23T10:10:55.244Z,103148.00
2023-01-23T10:13:37.700Z,103152.00
2023-01-23T10:16:33.258Z,103153.00
2023-01-23T10:19:27.109Z,103147.00
2023-01-23T10:22:05.312Z,103156.00
2023-01-23T10:24:47.698Z,103158.00
2023-01-23T10:27:23.622Z,103167.00
2023-01-23T10:29:59.757Z,103165.00
2023-01-23T10:32:35.600Z,103175.00
2023-01-23T10:35:10.087Z,103169.00
2023-01-23T10:37:51.607Z,103165.00
2023-01-23T10:40:44.753Z,103167.00
2023-01-23T10:43:17.796Z,103172.00
2023-01-23T10:45:48.917Z,103167.00
2023-01-23T10:48:44.540Z,103170.00
2023-01-23T10:51:50.772Z,103166.00
2023-01-23T10:54:33.218Z,103164.00
2023-01-23T10:57:07.417Z,103164.00
2023-01-23T10:59:41.860Z,103162.00
2023-01-23T11:02:29.595Z,103162.00
2023-01-23T11:05:02.919Z,103159.00
2023-01-23T11:07:35.514Z,103164.00
2023-01-23T11:10:24.149Z,103163.00
2023-01-23T11:12:56.848Z,103164.00
2023-01-23T11:15:29.760Z,103162.00
2023-01-23T11:18:03.232Z,103160.00
2023-01-23T11:20:39.866Z,103153.00
2023-01-23T11:23:20.073Z,103141.00
2023-01-23T11:25:51.917Z,103154.00
2023-01-23T11:28:27.361Z,103146.00
2023-01-23T11:31:12.904Z,103153.00
2023-01-23T11:33:48.273Z,103155.00
2023-01-23T11:36:45.662Z,103165.00
2023-01-23T11:39:28.014Z,103153.00
2023-01-23T11:41:57.919Z,103135.00
2023-01-23T11:44:30.086Z,103142.00
2023-01-23T11:47:33.182Z,103147.00
2023-01-23T11:50:24.508Z,103144.00
2023-01-23T11:53:05.840Z,103142.00
2023-01-23T11:56:05.856Z,103133.00
2023-01-23T11:59:18.239Z,103141.00
2023-01-23T12:02:04.035Z,103133.00
2023-01-23T12:04:59.091Z,103147.00
2023-01-23T12:07:29.860Z,103136.00
2023-01-23T12:10:17.637Z,103129.00
2023-01-23T12:13:15.808Z,103119.00
2023-01-23T12:16:00.958Z,103117.00
2023-01-23T12:18:38.445Z,103120.00
2023-01-23T12:21:16.791Z,103119.00
2023-01-23T12:24:12.142Z,103114.00
2023-01-23T12:27:01.432Z,103127.00
2023-01-23T12:30:08.957Z,103110.00
2023-01-23T12:32:57.057Z,103119.00
2023-01-23T12:35:38.022Z,103115.00
2023-01-23T12:38:28.270Z,103114.00
2023-01-23T12:41:16.319Z,103106.00
2023-01-23T12:43:56.356Z,103111.00
2023-01-23T12:46:34.113Z,103106.00
2023-01-23T12:49:24.845Z,103103.00
2023-01-23T12:52:01.471Z,103099.00
2023-01-23T12:54:41.337Z,103105.00
2023-01-23T12:57:13.995Z,103109.00
2023-01-23T13:00:01.378Z,103100.00
2023-01-23T13:02:41.759Z,103109.00
2023-01-23T13:05:23.783Z,103102.00
2023-01-23T13:08:01.719Z,103109.00
2023-01-23T13:11:10.308Z,103106.00
2023-01-23T13:13:40.572Z,103102.00
2023-01-23T13:16:18.691Z,103116.00
2023-01-23T13:19:09.777Z,103115.00
2023-01-23T13:21:52.260Z,103121.00
2023-01-23T13:24:55.033Z,103120.00
2023-01-23T13:27:50.293Z,103117.00
2023-01-23T13:30:46.063Z,103106.00
2023-01-23T13:34:10.144Z,103118.00
2023-01-23T13:36:44.633Z,103118.00
2023-01-23T13:39:31.081Z,103111.00
2023-01-23T13:42:46.477Z,103114.00
2023-01-23T13:45:29.587Z,103103.00
2023-01-23T14:21:41.870Z,103127.00
2023-01-23T14:24:26.421Z,103128.00
2023-01-23T14:27:07.856Z,103134.00
2023-01-23T14:29:40.746Z,103125.00
2023-01-23T14:32:25.606Z,103130.00
2023-01-23T14:34:55.453Z,103137.00
2023-01-23T14:37:26.017Z,103134.00
2023-01-23T14:39:59.820Z,103134.00
2023-01-23T14:42:33.887Z,103126.00
2023-01-23T14:45:06.856Z,103126.00
2023-01-23T14:47:42.491Z,103132.00
2023-01-23T14:50:19.800Z,103132.00
2023-01-23T14:53:00.229Z,103142.00
2023-01-23T14:55:32.499Z,103139.00
2023-01-23T14:58:03.891Z,103143.00
2023-01-23T15:00:38.661Z,103142.00
2023-01-23T15:03:08.919Z,103154.00
2023-01-23T15:05:39.802Z,103148.00
2023-01-23T15:08:27.814Z,103148.00
2023-01-23T15:11:00.589Z,103152.00
2023-01-23T15:13:38.359Z,103153.00
2023-01-23T15:16:22.616Z,103160.00
2023-01-23T15:19:04.430Z,103161.00
2023-01-23T15:21:38.786Z,103172.00
2023-01-23T15:24:22.796Z,103172.00
2023-01-23T15:27:08.949Z,103162.00
2023-01-23T15:29:38.970Z,103175.00
2023-01-23T15:32:26.290Z,103169.00
2023-01-23T15:34:59.207Z,103174.00
2023-01-23T15:37:30.799Z,103175.00
2023-01-23T15:40:04.144Z,103183.00
2023-01-23T15:42:35.902Z,103174.00
2023-01-23T15:45:14.685Z,103182.00
2023-01-23T15:47:47.141Z,103184.00
2023-01-23T15:50:17.180Z,103184.00
2023-01-23T15:52:52.347Z,103184.00
2023-01-23T15:55:24.606Z,103187.00
2023-01-23T15:57:54.905Z,103193.00
2023-01-23T16:00:27.656Z,103191.00
2023-01-23T16:03:02.079Z,103186.00
2023-01-23T16:05:36.822Z,103183.00
2023-01-23T16:08:08.137Z,103184.00
2023-01-23T16:10:40.845Z,103192.00
2023-01-23T16:13:15.623Z,103197.00
2023-01-23T16:15:46.469Z,103191.00
2023-01-23T16:32:05.883Z,103205.00
2023-01-23T16:34:38.516Z,103197.00
2023-01-23T16:37:17.230Z,103199.00
2023-01-23T16:39:49.534Z,103210.00
2023-01-23T16:42:25.083Z,103203.00
2023-01-23T16:44:55.813Z,103214.00
2023-01-23T16:47:25.691Z,103217.00
2023-01-23T16:49:58.141Z,103203.00
2023-01-23T16:52:28.726Z,103205.00
2023-01-23T16:54:59.387Z,103204.00
2023-01-23T16:57:29.897Z,103199.00
2023-01-23T17:00:01.349Z,103206.00
2023-01-23T17:02:34.275Z,103203.00
2023-01-23T17:05:09.163Z,103208.00
2023-01-23T17:07:39.949Z,103206.00
2023-01-23T17:10:12.752Z,103211.00
2023-01-23T17:12:43.158Z,103211.00
2023-01-23T17:15:22.166Z,103220.00
2023-01-23T17:17:54.064Z,103214.00
2023-01-23T17:20:28.635Z,103224.00
2023-01-23T17:22:58.843Z,103214.00
2023-01-23T17:25:31.887Z,103221.00
2023-01-23T17:28:12.334Z,103224.00
2023-01-23T17:30:44.376Z,103222.00
2023-01-23T17:33:21.443Z,103220.00
2023-01-23T17:35:54.791Z,103224.00
2023-01-23T17:38:27.321Z,103217.00
2023-01-23T17:40:57.274Z,103207.00
2023-01-23T17:43:27.164Z,103211.00
2023-01-23T17:45:57.361Z,103217.00
2023-01-23T17:48:31.183Z,103217.00
2023-01-23T17:51:04.000Z,103224.00
2023-01-23T17:53:33.870Z,103217.00
2023-01-23T17:56:03.707Z,103226.00
2023-01-23T17:58:33.541Z,103224.00
2023-01-23T18:01:03.493Z,103219.00
2023-01-23T18:03:33.630Z,103220.00
2023-01-23T18:06:06.451Z,103218.00
2023-01-23T18:08:40.162Z,103228.00
2023-01-23T18:11:17.808Z,103223.00
2023-01-23T18:14:17.706Z,103213.00
2023-01-23T18:16:49.865Z,103214.00
2023-01-23T18:19:22.875Z,103217.00
2023-01-23T18:21:58.232Z,103219.00
2023-01-23T18:24:30.542Z,103218.00
2023-01-23T18:27:03.347Z,103220.00
2023-01-23T18:29:49.112Z,103226.00
2023-01-23T18:32:51.500Z,103221.00
2023-01-23T18:35:35.153Z,103218.00
2023-01-23T18:38:17.893Z,103222.00
2023-01-23T18:41:01.404Z,103221.00
2023-01-23T18:43:39.733Z,103225.00
2023-01-23T18:46:15.876Z,103213.00
2023-01-23T18:48:49.440Z,103223.00
2023-01-23T18:51:37.857Z,103214.00
2023-01-23T18:54:30.805Z,103220.00
2023-01-23T18:57:15.931Z,103219.00
2023-01-23T18:59:49.576Z,103219.00
2023-01-23T19:02:33.428Z,103225.00
2023-01-23T19:05:25.052Z,103220.00
2023-01-23T19:07:55.517Z,103224.00
2023-01-23T19:10:40.182Z,103218.00
2023-01-23T19:13:23.246Z,103223.00
2023-01-23T19:16:02.422Z,103220.00
2023-01-23T19:18:48.218Z,103222.00
2023-01-23T19:21:23.690Z,103221.00
2023-01-23T19:24:00.993Z,103215.00
2023-01-23T19:26:36.648Z,103228.00
2023-01-23T19:29:20.945Z,103225.00
2023-01-23T19:32:04.232Z,103215.00
2023-01-23T19:34:35.269Z,103231.00
2023-01-23T19:37:05.934Z,103232.00
2023-01-23T19:39:35.900Z,103232.00
2023-01-23T19:42:08.495Z,103230.00
2023-01-23T19:44:38.381Z,103235.00
2023-01-23T19:47:08.695Z,103239.00
2023-01-23T19:49:38.549Z,103235.00
2023-01-23T19:52:08.462Z,103239.00
2023-01-23T19:54:38.327Z,103235.00
2023-01-23T19:57:10.780Z,103247.00
2023-01-23T19:59:40.646Z,103244.00
2023-01-23T20:02:19.200Z,103241.00
2023-01-23T20:04:49.452Z,103244.00
2023-01-23T20:07:19.301Z,103248.00
2023-01-23T20:09:50.283Z,103249.00
2023-01-23T20:12:22.725Z,103254.00
2023-01-23T20:14:52.591Z,103249.00
2023-01-23T20:17:22.464Z,103247.00
2023-01-23T20:19:53.256Z,103239.00
2023-01-23T20:22:23.674Z,103250.00
2023-01-23T20:24:53.757Z,103256.00
2023-01-23T20:27:26.206Z,103254.00
2023-01-23T20:29:56.203Z,103260.00
2023-01-23T20:32:26.231Z,103257.00
2023-01-23T20:34:57.869Z,103256.00
2023-01-23T20:37:28.001Z,103266.00
2023-01-23T20:39:57.872Z,103265.00
2023-01-23T20:42:30.526Z,103265.00
2023-01-23T20:45:00.386Z,103257.00
2023-01-23T20:47:30.236Z,103260.00
2023-01-23T20:50:02.535Z,103268.00
2023-01-23T20:52:44.906Z,103266.00
2023-01-23T20:55:14.817Z,103261.00
2023-01-23T20:57:59.759Z,103265.00
2023-01-23T21:00:29.622Z,103271.00
2023-01-23T21:02:59.521Z,103271.00
2023-01-23T21:05:29.382Z,103274.00
2023-01-23T21:07:59.220Z,103285.00
2023-01-23T21:10:29.124Z,103278.00
2023-01-23T21:13:01.572Z,103274.00
2023-01-23T21:15:33.185Z,103283.00
2023-01-23T21:18:03.203Z,103266.00
2023-01-23T21:20:33.062Z,103278.00
2023-01-23T21:23:02.938Z,103286.00
2023-01-23T21:25:32.813Z,103291.00
2023-01-23T21:28:05.268Z,103290.00
2023-01-23T21:30:35.224Z,103285.00
2023-01-23T21:33:05.103Z,103288.00
2023-01-23T21:35:35.362Z,103266.00
2023-01-23T21:38:06.643Z,103282.00
2023-01-23T21:40:36.498Z,103279.00
2023-01-23T21:43:08.945Z,103286.00
2023-01-23T21:45:38.789Z,103287.00
2023-01-23T21:48:09.332Z,103278.00
2023-01-23T21:50:39.211Z,103284.00
2023-01-23T21:53:09.370Z,103280.00
2023-01-23T21:55:39.878Z,103282.00
2023-01-23T21:58:12.306Z,103281.00
2023-01-23T22:00:54.659Z,103278.00
2023-01-23T22:03:24.528Z,103278.00
2023-01-23T22:05:54.389Z,103280.00
2023-01-23T22:08:24.249Z,103280.00
2023-01-23T22:10:54.128Z,103272.00
2023-01-23T22:13:26.717Z,103269.00
2023-01-23T22:15:56.616Z,103268.00
2023-01-23T22:18:26.612Z,103267.00
2023-01-23T22:20:56.855Z,103267.00
2023-01-23T22:23:28.104Z,103281.00
2023-01-23T22:26:01.504Z,103274.00
2023-01-23T22:28:34.468Z,103279.00
2023-01-23T22:31:10.122Z,103277.00
2023-01-23T22:33:41.366Z,103286.00
2023-01-23T22:36:15.789Z,103281.00
2023-01-23T22:38:46.896Z,103281.00
2023-01-23T22:41:17.555Z,103288.00
2023-01-23T22:43:50.156Z,103291.00
2023-01-23T22:46:21.248Z,103287.00
2023-01-23T22:48:51.138Z,103287.00
2023-01-23T22:51:24.993Z,103297.00
2023-01-23T22:53:55.351Z,103289.00
2023-01-23T22:56:26.403Z,103278.00
2023-01-23T22:59:01.186Z,103283.00
2023-01-23T23:01:32.114Z,103285.00
2023-01-23T23:04:03.039Z,103288.00
2023-01-23T23:06:34.059Z,103289.00
2023-01-23T23:09:05.306Z,103284.00
2023-01-23T23:11:36.990Z,103284.00
2023-01-23T23:14:09.473Z,103283.00
2023-01-23T23:16:39.414Z,103282.00
2023-01-23T23:19:09.263Z,103282.00
2023-01-23T23:21:40.573Z,103285.00
2023-01-23T23:24:15.056Z,103288.00
2023-01-23T23:26:45.062Z,103283.00
2023-01-23T23:29:18.707Z,103276.00
2023-01-23T23:31:51.525Z,103270.00
2023-01-23T23:34:22.476Z,103265.00
2023-01-23T23:36:52.348Z,103267.00
2023-01-23T23:39:22.363Z,103261.00
2023-01-23T23:41:52.288Z,103254.00
2023-01-23T23:44:25.034Z,103263.00
2023-01-23T23:46:55.042Z,103257.00
2023-01-23T23:49:26.464Z,103253.00
2023-01-23T23:51:56.327Z,103255.00
2023-01-23T23:54:26.179Z,103260.00
2023-01-23T23:56:56.025Z,103257.00
2023-01-23T23:59:28.476Z,103261.00
